Paso Robles, California
Current Conditions -  °F | °C
As of 1:38 PM on Friday 19 Dec 2014 (Local Time) from KPRB Reporting Station
Broken Clouds Broken Clouds  
Wind Chill: 58°   Ceiling: 2300
Heat Index: 58°   Visibility: 10mi
Dew Point: 49°   Wind: 3mph
Humidity: 72%   Direction: 150°SSE
Pressure: 30.17"   Gusts: NA
Location:  35.67°N, 120.63°W
Report Text: KPRB 192138Z AUTO 15003KT 10SM BKN023 BKN046 14/09 A3017 RMK AO2 T01440094 TSNO
Loading
Personal Weather Stations






























Interactive Weather Map New forecast layout! Learn more

10-Day Weather Forecast

Advertisements
Track Severe Weather on mobile